Time;durP1;ratioP1;P1;durP2;ratioP2;P2;SDS_P1;SDS_P2;PMS_P1;PMS_P2;Temp;Humidity;BMP_temperature;BMP_pressure;BME280_temperature;BME280_humidity;BME280_pressure;Samples;Min_cycle;Max_cycle;Signal;HPM_P1;HPM_P2
2022/08/19 00:00:58;;;;;;;14.27;9.63;;;;;;;31.46;69.13;97580.66;5007280;28;20042;-72
2022/08/19 00:03:48;;;;;;;15.50;9.38;;;;;;;31.55;68.46;97575.63;4989226;28;20354;-72
2022/08/19 00:06:31;;;;;;;15.52;8.80;;;;;;;31.25;69.16;97584.00;5006904;28;20054;-72
2022/08/19 00:09:28;;;;;;;12.80;9.02;;;;;;;31.30;69.87;97583.63;4993175;28;20085;-71
2022/08/19 00:12:23;;;;;;;14.65;10.55;;;;;;;31.35;69.84;97586.88;5006688;28;20053;-72
2022/08/19 00:15:16;;;;;;;18.80;10.75;;;;;;;31.42;69.49;97591.72;5006320;28;20052;-73
2022/08/19 00:17:58;;;;;;;15.95;10.35;;;;;;;31.21;70.47;97592.28;5007076;28;20064;-71
2022/08/19 00:20:54;;;;;;;20.60;10.57;;;;;;;30.99;71.14;97597.56;5005179;28;20088;-71
2022/08/19 00:23:29;;;;;;;16.80;11.13;;;;;;;31.07;70.79;97595.69;5006836;28;20073;-71
2022/08/19 00:26:25;;;;;;;16.27;9.95;;;;;;;31.29;70.77;97605.03;5006547;28;20049;-71
2022/08/19 00:29:03;;;;;;;13.23;9.95;;;;;;;31.09;71.18;97606.38;4990771;28;20053;-69
2022/08/19 00:31:56;;;;;;;15.35;9.88;;;;;;;30.81;71.95;97607.59;5006882;28;20069;-72
2022/08/19 00:34:38;;;;;;;15.20;10.15;;;;;;;30.87;72.10;97608.84;5006617;28;20335;-71
2022/08/19 00:37:35;;;;;;;12.10;9.60;;;;;;;30.96;71.72;97614.94;5006306;28;20058;-71
2022/08/19 00:40:12;;;;;;;15.45;9.50;;;;;;;30.92;71.35;97613.31;5005384;28;20536;-71
2022/08/19 00:43:06;;;;;;;15.25;10.10;;;;;;;30.97;71.35;97621.25;4990197;28;20042;-71
2022/08/19 00:45:43;;;;;;;11.73;9.15;;;;;;;31.08;71.25;97622.19;5006154;28;20061;-71
2022/08/19 00:48:40;;;;;;;12.05;8.93;;;;;;;31.06;70.95;97623.75;5006047;28;20477;-71
2022/08/19 00:51:16;;;;;;;11.02;8.85;;;;;;;30.88;71.57;97624.31;5006389;28;20049;-71
2022/08/19 00:54:11;;;;;;;12.15;8.90;;;;;;;30.86;71.88;97632.19;5006557;28;20045;-71
2022/08/19 00:56:49;;;;;;;11.32;8.40;;;;;;;30.97;71.23;97640.66;5006166;28;20142;-71
2022/08/19 00:59:41;;;;;;;11.43;8.20;;;;;;;30.63;72.38;97640.56;5006005;28;20088;-71
2022/08/19 01:02:41;;;;;;;10.48;7.72;;;;;;;30.65;72.52;97643.78;5006169;28;20485;-71
2022/08/19 01:05:37;;;;;;;13.85;7.10;;;;;;;30.64;72.33;97645.72;4990779;28;20045;-71
2022/08/19 01:08:15;;;;;;;8.48;6.43;;;;;;;30.73;71.82;97650.22;4988510;28;20054;-73
2022/08/19 01:11:11;;;;;;;15.65;7.15;;;;;;;30.88;70.98;97652.00;4987871;28;20058;-72
2022/08/19 01:13:59;;;;;;;17.77;8.00;;;;;;;30.77;71.41;97656.59;4986309;28;20053;-72
2022/08/19 01:16:49;;;;;;;14.52;6.55;;;;;;;30.68;71.28;97650.53;4986490;28;20050;-72
2022/08/19 01:19:35;;;;;;;9.50;6.80;;;;;;;30.73;71.91;97650.22;4985944;28;20046;-71
2022/08/19 01:22:30;;;;;;;8.07;5.57;;;;;;;30.60;71.61;97655.16;4985926;28;20057;-72
2022/08/19 01:25:19;;;;;;;10.65;6.25;;;;;;;30.91;70.98;97656.00;4986106;28;20045;-71
2022/08/19 01:28:09;;;;;;;12.40;6.68;;;;;;;31.00;71.24;97653.78;4968816;28;20057;-70
2022/08/19 01:31:25;;;;;;;9.20;6.32;;;;;;;31.12;70.15;97667.38;4988060;28;20074;-71
2022/08/19 01:34:02;;;;;;;10.65;6.82;;;;;;;30.96;70.82;97670.34;4990211;28;20042;-71
2022/08/19 01:36:57;;;;;;;13.60;6.90;;;;;;;30.83;71.55;97671.72;4990996;28;20050;-72
2022/08/19 01:39:33;;;;;;;9.73;6.75;;;;;;;30.92;71.14;97677.81;5021984;28;20046;-73
2022/08/19 01:42:27;;;;;;;11.77;6.95;;;;;;;30.78;71.53;97683.91;5024353;28;20049;-73
2022/08/19 01:45:05;;;;;;;11.38;7.25;;;;;;;30.80;72.00;97684.34;5029291;28;20042;-74
2022/08/19 01:48:00;;;;;;;13.05;7.35;;;;;;;30.73;72.28;97681.47;5029549;28;20045;-73
2022/08/19 01:50:37;;;;;;;9.60;7.97;;;;;;;30.71;72.14;97688.56;5029261;28;20050;-73
2022/08/19 01:53:26;;;;;;;9.13;6.65;;;;;;;31.02;71.50;97693.78;5029017;28;20053;-72
2022/08/19 01:56:14;;;;;;;14.68;7.72;;;;;;;30.62;73.19;97691.56;5029206;28;20127;-73
2022/08/19 01:59:08;;;;;;;12.45;6.80;;;;;;;30.74;72.95;97687.78;5029254;28;20046;-73
2022/08/19 02:01:57;;;;;;;13.95;6.90;;;;;;;31.15;71.55;97690.78;5029305;28;20056;-72
2022/08/19 02:04:46;;;;;;;8.25;6.95;;;;;;;31.45;70.45;97689.97;5029134;28;20510;-73
2022/08/19 03:04:08;;;;;;;;;;;;;;;;;;;;;
2022/08/19 09:03:10;;;;;;;4.25;1.20;;;;;;;36.43;50.38;97645.63;4988184;28;20054;-73
2022/08/19 09:06:15;;;;;;;5.43;1.23;;;;;;;36.28;50.79;97635.00;4981335;28;20049;-73
2022/08/19 09:09:20;;;;;;;2.92;1.35;;;;;;;36.64;48.66;97636.25;4988630;28;20081;-72
2022/08/19 09:12:58;;;;;;;5.20;1.40;;;;;;;36.66;50.01;97635.88;5005752;28;20143;-73
2022/08/19 09:16:13;;;;;;;8.52;1.50;;;;;;;36.86;48.52;97626.88;4961908;28;20039;-73
2022/08/19 09:19:07;;;;;;;3.83;1.30;;;;;;;36.81;48.42;97623.31;4976274;28;20049;-73
2022/08/19 09:22:05;;;;;;;3.03;1.13;;;;;;;36.93;48.81;97621.19;4991996;28;20053;-74
2022/08/19 09:24:52;;;;;;;3.53;1.38;;;;;;;36.71;49.50;97610.28;5005606;28;20049;-75
2022/08/19 09:27:44;;;;;;;4.90;1.35;;;;;;;36.52;48.13;97603.25;5005598;28;20069;-73
2022/08/19 09:30:33;;;;;;;8.98;1.60;;;;;;;36.71;48.69;97610.28;4989324;28;20135;-73
2022/08/19 09:33:32;;;;;;;2.80;1.42;;;;;;;36.96;48.66;97596.00;4976206;28;20053;-73
2022/08/19 09:36:19;;;;;;;6.53;1.52;;;;;;;36.74;51.02;97603.03;5005402;28;20042;-74
2022/08/19 09:39:14;;;;;;;3.60;1.10;;;;;;;36.73;50.12;97607.84;5000551;28;20061;-72
2022/08/19 09:41:56;;;;;;;4.10;1.40;;;;;;;36.37;50.92;97597.00;4986465;28;20470;-73
2022/08/19 09:45:02;;;;;;;4.43;1.77;;;;;;;36.49;50.07;97603.28;4985520;28;20478;-75
2022/08/19 09:47:44;;;;;;;4.18;1.40;;;;;;;36.43;49.03;97600.13;4985928;28;20105;-73
2022/08/19 09:50:39;;;;;;;;;;;;;;;36.63;48.70;97594.72;4986526;28;20066;-74
2022/08/19 09:53:27;;;;;;;4.55;1.70;;;;;;;36.60;50.53;97582.41;4989619;28;20455;-75
2022/08/19 09:56:19;;;;;;;9.15;1.98;;;;;;;36.43;50.18;97588.97;4972874;28;20046;-73
2022/08/19 09:59:01;;;;;;;7.32;1.48;;;;;;;36.56;49.80;97575.28;4990763;28;20034;-74
2022/08/19 10:01:51;;;;;;;3.15;1.50;;;;;;;36.45;50.42;97569.78;4990960;28;20046;-74
2022/08/19 10:07:47;;;;;;;6.30;1.70;;;;;;;36.91;49.84;97568.47;5006558;28;20053;-73
2022/08/19 10:10:36;;;;;;;5.95;1.45;;;;;;;36.30;51.52;97563.53;5009041;28;20054;-73
2022/08/19 10:13:28;;;;;;;7.72;1.67;;;;;;;36.63;51.13;97573.19;5008864;28;20543;-73
2022/08/19 10:16:22;;;;;;;5.72;1.75;;;;;;;36.38;51.41;97556.69;5008648;28;20046;-73
2022/08/19 10:19:10;;;;;;;5.22;1.60;;;;;;;36.35;51.15;97549.13;5008518;28;20042;-74
2022/08/19 10:21:54;;;;;;;6.25;1.60;;;;;;;36.74;49.99;97558.31;5009311;28;20045;-73
2022/08/19 10:24:43;;;;;;;6.60;1.92;;;;;;;36.95;50.43;97552.44;5008879;28;20045;-73
2022/08/19 10:27:38;;;;;;;6.35;1.95;;;;;;;36.96;49.53;97542.06;5008664;28;20049;-73
2022/08/19 10:30:32;;;;;;;8.30;1.85;;;;;;;36.73;49.62;97548.34;4990676;28;20037;-74
2022/08/19 10:33:22;;;;;;;5.30;1.67;;;;;;;36.40;50.88;97543.09;5027095;28;20067;-73
2022/08/19 10:36:35;;;;;;;9.30;2.10;;;;;;;36.38;49.12;97536.31;4998793;28;20048;-74
2022/08/19 10:39:38;;;;;;;6.07;1.73;;;;;;;36.50;48.86;97533.00;5020418;28;20057;-74
2022/08/19 10:42:30;;;;;;;4.93;1.73;;;;;;;36.16;48.31;97530.16;5008237;28;20045;-74
2022/08/19 10:45:13;;;;;;;5.72;1.58;;;;;;;36.31;48.31;97537.19;5007689;28;20056;-73
2022/08/19 10:48:12;;;;;;;4.13;1.63;;;;;;;36.73;47.63;97523.19;5010122;28;20046;-73
2022/08/19 10:54:09;;;;;;;4.35;1.60;;;;;;;36.60;48.09;97514.53;5008195;28;20045;-75
2022/08/19 10:56:53;;;;;;;3.95;1.70;;;;;;;36.31;48.88;97514.84;5008041;28;20096;-74
2022/08/19 10:59:41;;;;;;;4.28;1.80;;;;;;;36.17;50.03;97515.81;4996624;28;20116;-73
2022/08/19 11:02:23;;;;;;;8.82;2.15;;;;;;;36.55;49.39;97515.75;4999776;28;20108;-74
2022/08/19 11:05:14;;;;;;;7.40;1.85;;;;;;;36.17;50.96;97515.00;5007544;28;20773;-73
2022/08/19 11:07:56;;;;;;;5.60;1.55;;;;;;;35.84;51.14;97508.91;5009223;28;20054;-74
2022/08/19 11:11:05;;;;;;;5.93;1.90;;;;;;;36.12;49.52;97510.63;4989984;28;20042;-74
2022/08/19 11:13:49;;;;;;;12.73;2.20;;;;;;;36.28;49.44;97506.50;4991308;28;20445;-72
2022/08/19 11:16:39;;;;;;;4.70;1.92;;;;;;;36.42;50.54;97504.34;5006266;28;20050;-72
2022/08/19 11:19:23;;;;;;;9.93;1.88;;;;;;;36.36;49.57;97497.63;5007305;28;20042;-73
2022/08/19 11:22:11;;;;;;;11.95;1.92;;;;;;;36.36;49.23;97494.81;5011196;28;20054;-73
2022/08/19 11:24:58;;;;;;;10.00;2.20;;;;;;;36.59;49.89;97482.19;5010536;28;20038;-72
2022/08/19 11:27:53;;;;;;;6.80;2.00;;;;;;;36.51;49.05;97483.50;5027141;28;20046;-75
2022/08/19 11:30:29;;;;;;;8.90;1.98;;;;;;;36.11;49.52;97488.69;5003717;28;20045;-73
2022/08/19 11:33:18;;;;;;;8.18;1.52;;;;;;;36.07;50.03;97489.50;5027286;28;20053;-72
2022/08/19 11:36:01;;;;;;;;;;;;;;;36.19;49.66;97490.22;5028314;28;20148;-73
2022/08/19 11:38:54;;;;;;;;;;;;;;;36.24;49.38;97476.59;5025648;28;19925;-73
2022/08/19 11:41:36;;;;;;;8.38;2.17;;;;;;;36.22;50.36;97486.63;5007412;28;19925;-72
2022/08/19 11:44:35;;;;;;;5.57;1.25;;;;;;;35.92;49.21;97481.69;4989858;28;20046;-74
2022/08/19 11:47:11;;;;;;;5.50;1.20;;;;;;;35.76;49.49;97471.09;4991181;28;20185;-72
2022/08/19 11:50:06;;;;;;;;;;;;;;;36.11;49.97;97466.34;5008207;28;20108;-73
2022/08/19 11:52:44;;;;;;;5.95;1.23;;;;;;;35.77;49.25;97469.88;5006802;28;19926;-73
2022/08/19 11:55:42;;;;;;;10.63;1.42;;;;;;;35.86;50.03;97467.41;4989682;28;20515;-73
2022/08/19 11:58:18;;;;;;;4.57;1.27;;;;;;;35.96;49.49;97460.94;5006670;28;20136;-72
2022/08/19 12:01:10;;;;;;;4.03;1.42;;;;;;;36.21;49.54;97457.09;5006007;28;20052;-72
2022/08/19 12:03:55;;;;;;;11.10;1.90;;;;;;;35.80;50.62;97453.09;5007169;28;20124;-73
2022/08/19 12:06:51;;;;;;;4.22;1.40;;;;;;;35.72;50.31;97450.78;5009948;28;20054;-73
2022/08/19 12:09:47;;;;;;;5.40;1.40;;;;;;;35.80;50.67;97458.69;5013442;28;20117;-73
2022/08/19 12:12:37;;;;;;;8.32;1.83;;;;;;;35.67;51.42;97454.78;5011497;28;20045;-72
2022/08/19 12:15:20;;;;;;;5.40;1.60;;;;;;;35.61;50.98;97453.66;5005814;28;20132;-72
2022/08/19 12:18:16;;;;;;;11.70;2.08;;;;;;;35.73;51.57;97453.16;5006086;28;20045;-73
2022/08/19 12:21:00;;;;;;;9.88;2.35;;;;;;;35.39;52.55;97455.81;5007171;28;20447;-73
2022/08/19 12:23:51;;;;;;;13.65;2.80;;;;;;;35.40;52.38;97457.41;5006522;28;20669;-73
2022/08/19 12:26:40;;;;;;;16.15;2.70;;;;;;;35.55;52.11;97447.72;5006384;28;20053;-73
2022/08/19 12:29:33;;;;;;;8.68;2.00;;;;;;;35.55;52.55;97449.72;4991945;28;20071;-72
2022/08/19 12:32:43;;;;;;;9.38;2.38;;;;;;;35.27;53.03;97443.97;5001818;28;20045;-74
2022/08/19 12:35:31;;;;;;;5.32;1.88;;;;;;;35.34;53.50;97445.09;5006041;28;20053;-74
2022/08/19 12:38:14;;;;;;;6.70;1.98;;;;;;;35.38;53.29;97455.03;5006194;28;20041;-72
2022/08/19 12:41:05;;;;;;;7.38;2.00;;;;;;;35.33;53.63;97460.25;5006764;28;20061;-72
2022/08/19 12:43:49;;;;;;;7.72;2.30;;;;;;;34.93;54.29;97466.06;5005656;28;20045;-73
2022/08/19 12:46:37;;;;;;;7.70;1.95;;;;;;;34.90;54.66;97470.44;5006283;28;20065;-73
2022/08/19 12:49:21;;;;;;;6.82;2.13;;;;;;;35.21;54.44;97458.75;5005805;28;20042;-72
2022/08/19 12:52:31;;;;;;;7.35;2.20;;;;;;;34.96;54.23;97456.09;5005963;28;20775;-72
2022/08/19 12:55:14;;;;;;;12.45;2.60;;;;;;;34.96;53.64;97447.72;5006031;28;20045;-72
2022/08/19 12:58:17;;;;;;;14.23;2.78;;;;;;;34.94;54.14;97455.72;5008641;28;20481;-73
2022/08/19 13:01:32;;;;;;;11.90;2.67;;;;;;;35.07;53.54;97454.03;4996376;28;20053;-73
2022/08/19 13:04:22;;;;;;;7.70;2.45;;;;;;;34.71;54.03;97457.03;5003971;28;20049;-73
2022/08/19 13:07:04;;;;;;;6.72;2.28;;;;;;;34.74;53.29;97460.97;5005952;28;20133;-72
2022/08/19 13:09:59;;;;;;;10.50;2.38;;;;;;;34.53;53.81;97471.00;5002994;28;20140;-73
2022/08/19 13:12:51;;;;;;;8.82;2.78;;;;;;;34.38;54.16;97461.13;5005023;28;20065;-72
2022/08/19 13:15:58;;;;;;;10.00;2.38;;;;;;;34.69;53.39;97457.41;4989140;28;20049;-72
2022/08/19 13:18:43;;;;;;;8.18;2.60;;;;;;;34.57;52.98;97462.63;5005296;28;20050;-71
2022/08/19 13:21:33;;;;;;;12.05;2.65;;;;;;;34.52;53.23;97461.84;5005608;28;20049;-72
2022/08/19 13:24:18;;;;;;;7.13;2.55;;;;;;;34.67;52.65;97467.41;5007184;28;20066;-70
2022/08/19 13:27:13;;;;;;;11.95;2.80;;;;;;;34.53;53.06;97465.44;4987455;28;20430;-71
2022/08/19 13:33:11;;;;;;;14.82;2.53;;;;;;;34.12;52.86;97477.84;5004200;28;20050;-72
2022/08/19 13:36:00;;;;;;;4.93;2.63;;;;;;;34.39;52.59;97474.63;5004648;28;20052;-74
2022/08/19 13:38:51;;;;;;;7.18;2.40;;;;;;;34.33;52.21;97479.81;5002321;28;20853;-74
2022/08/19 13:41:34;;;;;;;7.60;2.40;;;;;;;34.44;52.28;97481.78;4985068;28;20046;-74
2022/08/19 13:44:23;;;;;;;8.40;2.72;;;;;;;34.54;51.74;97480.94;4983815;28;20057;-73
2022/08/19 13:47:07;;;;;;;11.32;3.53;;;;;;;34.49;52.11;97487.75;4984612;28;20433;-72
2022/08/19 13:49:59;;;;;;;8.90;2.67;;;;;;;34.26;52.42;97485.44;4301303;28;9999990;-73
2022/08/19 13:52:41;;;;;;;10.90;2.95;;;;;;;33.87;53.47;97488.25;4964875;28;20058;-72
2022/08/19 13:55:32;;;;;;;8.50;2.75;;;;;;;34.11;53.24;97489.41;4947694;28;20529;-72
2022/08/19 13:58:14;;;;;;;11.82;2.97;;;;;;;34.29;52.89;97490.19;4990860;28;20049;-72
2022/08/19 14:01:04;;;;;;;14.23;3.50;;;;;;;34.00;53.18;97492.22;4982707;28;20050;-72
2022/08/19 14:04:06;;;;;;;16.75;3.33;;;;;;;34.00;53.70;97499.78;4991119;28;20740;-72
2022/08/19 14:07:13;;;;;;;17.83;3.53;;;;;;;34.16;53.55;97493.78;4990783;28;20068;-71
2022/08/19 14:10:31;;;;;;;13.80;3.25;;;;;;;34.10;53.48;97496.16;5001437;28;20325;-71
2022/08/19 14:13:26;;;;;;;10.60;4.18;;;;;;;34.16;53.54;97489.00;4967027;28;20041;-72
2022/08/19 14:16:30;;;;;;;13.85;3.33;;;;;;;33.91;53.83;97500.16;4999011;28;20634;-70
2022/08/19 14:19:33;;;;;;;26.13;4.65;;;;;;;34.07;53.74;97503.34;4992452;28;20084;-71
2022/08/19 14:22:40;;;;;;;16.70;3.55;;;;;;;33.73;55.05;97506.53;4987208;28;20066;-72
2022/08/19 14:26:13;;;;;;;11.95;3.42;;;;;;;33.66;54.22;97500.97;4957236;28;20362;-72
2022/08/19 14:29:14;;;;;;;14.10;3.47;;;;;;;33.78;54.19;97501.75;4990237;28;20068;-73
2022/08/19 14:32:24;;;;;;;13.00;3.15;;;;;;;33.92;53.69;97507.34;4989242;28;20049;-72
2022/08/19 14:35:26;;;;;;;9.97;3.23;;;;;;;33.86;53.13;97509.72;4982137;28;20204;-72
2022/08/19 14:38:36;;;;;;;12.20;3.33;;;;;;;34.19;53.00;97509.72;4984688;28;21058;-73
2022/08/19 14:41:37;;;;;;;9.73;2.93;;;;;;;33.61;54.35;97509.69;4991030;28;20065;-73
2022/08/19 14:44:45;;;;;;;12.65;3.53;;;;;;;33.70;54.63;97509.31;4992632;28;20056;-73
2022/08/19 14:47:46;;;;;;;14.23;3.33;;;;;;;34.05;54.15;97511.28;4985628;28;20064;-72
2022/08/19 14:50:56;;;;;;;12.82;3.50;;;;;;;33.89;55.19;97517.25;4995894;28;20060;-72
2022/08/19 14:54:03;;;;;;;13.25;3.20;;;;;;;33.82;54.86;97528.41;4993719;28;20192;-73
2022/08/19 14:57:15;;;;;;;16.48;3.80;;;;;;;33.68;55.25;97526.41;5030276;28;20068;-72
2022/08/19 15:00:18;;;;;;;10.05;3.80;;;;;;;33.90;54.71;97523.63;5012709;28;20053;-73
2022/08/19 15:03:25;;;;;;;17.38;3.40;;;;;;;33.74;55.28;97533.19;5014904;28;20421;-72
2022/08/19 15:06:28;;;;;;;15.43;3.75;;;;;;;33.94;55.18;97539.13;5018648;28;20056;-73
2022/08/19 15:09:35;;;;;;;10.13;3.75;;;;;;;33.78;55.35;97540.72;4991229;28;20052;-73
2022/08/19 15:12:17;;;;;;;13.40;4.15;;;;;;;33.66;55.35;97542.69;5007012;28;20057;-73
2022/08/19 15:15:25;;;;;;;11.52;3.65;;;;;;;33.79;55.09;97542.31;5008281;28;20064;-73
2022/08/19 15:18:12;;;;;;;13.70;4.55;;;;;;;33.65;55.82;97554.22;5006015;28;20393;-73
2022/08/19 15:21:01;;;;;;;15.13;4.60;;;;;;;33.84;55.26;97555.81;4982367;28;20042;-73
2022/08/19 15:23:54;;;;;;;13.73;4.28;;;;;;;33.93;54.88;97565.38;4986814;28;20054;-72
2022/08/19 15:26:37;;;;;;;14.48;4.55;;;;;;;33.76;55.44;97565.38;4985392;28;20050;-73
2022/08/19 15:29:27;;;;;;;17.15;4.05;;;;;;;33.92;55.42;97563.78;4980346;28;20643;-72
2022/08/19 15:32:11;;;;;;;18.02;4.10;;;;;;;33.92;54.33;97565.78;5018837;28;20477;-72
2022/08/19 15:35:01;;;;;;;15.63;4.05;;;;;;;33.41;56.31;97561.31;4991983;28;20041;-72
2022/08/19 15:37:53;;;;;;;14.43;4.07;;;;;;;33.54;56.08;97568.91;4993714;28;20056;-72
2022/08/19 15:40:36;;;;;;;13.23;5.30;;;;;;;33.68;55.91;97576.50;5007048;28;20489;-71
2022/08/19 15:43:25;;;;;;;15.43;4.00;;;;;;;33.70;55.87;97585.22;5003392;28;20108;-72
2022/08/19 15:46:07;;;;;;;14.43;3.80;;;;;;;33.77;56.24;97589.25;5005776;28;20124;-71
2022/08/19 15:49:02;;;;;;;14.50;5.00;;;;;;;33.34;57.10;97593.50;5004345;28;20049;-71
2022/08/19 15:51:46;;;;;;;13.63;4.22;;;;;;;33.47;56.19;97604.25;5001435;28;20042;-71
2022/08/19 15:54:36;;;;;;;11.98;4.13;;;;;;;33.46;56.44;97603.47;5004919;28;20677;-71
2022/08/19 16:06:30;;;;;;;12.05;3.95;;;;;;;33.21;57.07;97620.06;5024132;28;20063;-71
2022/08/19 16:09:07;;;;;;;16.13;3.78;;;;;;;33.38;56.41;97612.16;5020864;28;20057;-70
2022/08/19 16:12:07;;;;;;;16.00;4.28;;;;;;;33.35;56.38;97631.22;5009562;28;20077;-71
2022/08/19 16:15:04;;;;;;;22.17;4.30;;;;;;;33.43;57.06;97634.84;5013431;28;20054;-71
2022/08/19 16:17:55;;;;;;;15.30;3.85;;;;;;;33.39;56.79;97642.38;5011958;28;20085;-71
2022/08/19 16:20:37;;;;;;;18.13;3.80;;;;;;;33.35;56.92;97647.91;5008191;28;20295;-71
2022/08/19 16:23:26;;;;;;;18.60;4.00;;;;;;;33.42;56.67;97651.91;4995610;28;20121;-70
2022/08/19 16:26:08;;;;;;;12.80;4.05;;;;;;;33.45;57.08;97657.47;5006622;28;20057;-70
2022/08/19 16:29:07;;;;;;;11.57;4.10;;;;;;;33.53;56.71;97664.69;4988546;28;20041;-70
2022/08/19 16:31:48;;;;;;;18.95;4.93;;;;;;;33.32;57.56;97667.38;5004824;28;20048;-71
2022/08/19 16:34:45;;;;;;;11.45;3.88;;;;;;;33.11;57.89;97677.19;4999984;28;20046;-71
2022/08/19 16:37:22;;;;;;;17.20;4.00;;;;;;;33.37;57.18;97672.56;5005299;28;21502;-71
2022/08/19 16:40:18;;;;;;;14.63;4.05;;;;;;;33.14;57.61;97668.09;5013638;28;20049;-70
2022/08/19 16:42:55;;;;;;;11.40;4.00;;;;;;;33.20;57.71;97665.72;5025467;28;20152;-71
2022/08/19 16:45:53;;;;;;;10.52;3.97;;;;;;;33.32;57.06;97670.94;5024949;28;20055;-70
2022/08/19 16:48:31;;;;;;;18.08;4.80;;;;;;;33.25;57.83;97676.50;5024631;28;20050;-71
2022/08/19 16:51:21;;;;;;;14.32;3.85;;;;;;;33.15;58.05;97683.59;5024639;28;20131;-71
2022/08/19 16:54:11;;;;;;;19.90;4.93;;;;;;;33.38;57.68;97676.91;5005877;28;20152;-70
2022/08/19 16:56:54;;;;;;;16.20;4.68;;;;;;;33.20;57.90;97684.41;5024939;28;20045;-70
2022/08/19 16:59:44;;;;;;;18.95;5.82;;;;;;;32.97;58.52;97694.56;5024024;28;20077;-71
2022/08/19 17:02:34;;;;;;;13.45;5.15;;;;;;;33.01;58.22;97691.03;5023543;28;20621;-70
2022/08/19 17:05:23;;;;;;;17.35;4.28;;;;;;;33.16;57.32;97696.28;5010148;28;20539;-71
2022/08/19 17:08:12;;;;;;;15.63;4.10;;;;;;;33.08;58.10;97693.84;4998610;28;20045;-71
2022/08/19 17:10:54;;;;;;;13.90;5.10;;;;;;;33.25;57.46;97698.72;5011455;28;20065;-71
2022/08/19 17:14:03;;;;;;;13.20;4.10;;;;;;;32.89;58.53;97694.94;5013537;28;20139;-70
2022/08/19 17:16:59;;;;;;;14.05;4.20;;;;;;;32.92;58.59;97692.19;4992327;28;20292;-70
2022/08/19 17:19:53;;;;;;;20.85;5.00;;;;;;;33.15;58.00;97683.59;4987329;28;20041;-70
2022/08/19 17:22:29;;;;;;;10.23;4.90;;;;;;;32.96;58.82;97681.88;5005304;28;20158;-71
2022/08/19 17:25:17;;;;;;;10.68;3.88;;;;;;;33.06;58.53;97676.78;4988014;28;20053;-70
2022/08/19 17:28:01;;;;;;;10.50;4.43;;;;;;;32.88;58.91;97682.22;5005573;28;20050;-71
2022/08/19 17:30:50;;;;;;;11.75;4.50;;;;;;;32.89;59.33;97679.06;4989754;28;20042;-71
2022/08/19 17:33:39;;;;;;;21.63;4.78;;;;;;;32.69;59.39;97686.06;4977308;28;20670;-70
2022/08/19 17:36:22;;;;;;;18.23;5.50;;;;;;;32.79;59.48;97679.78;4990280;28;20054;-70
2022/08/19 17:39:11;;;;;;;15.02;4.28;;;;;;;32.78;59.46;97687.31;4986873;28;20433;-71
2022/08/19 17:41:52;;;;;;;16.48;4.63;;;;;;;32.81;59.41;97671.03;4970031;28;20545;-71
2022/08/19 17:44:43;;;;;;;14.20;4.85;;;;;;;32.89;58.92;97667.94;4982564;28;20057;-71
2022/08/19 17:47:32;;;;;;;12.45;5.10;;;;;;;32.85;59.26;97667.13;4982628;28;20117;-70
2022/08/19 17:50:26;;;;;;;12.38;4.90;;;;;;;32.97;59.17;97660.44;5002519;28;20049;-71
2022/08/19 17:53:09;;;;;;;10.55;4.07;;;;;;;32.89;59.56;97656.81;4986349;28;20057;-70
2022/08/19 17:55:57;;;;;;;14.18;4.57;;;;;;;32.93;59.70;97662.41;4991102;28;20042;-72
2022/08/19 17:58:46;;;;;;;16.38;4.65;;;;;;;32.45;60.27;97674.34;4985923;28;20669;-72
2022/08/19 18:01:41;;;;;;;24.88;4.60;;;;;;;32.76;59.91;97673.00;4972421;28;20049;-70
2022/08/19 18:04:34;;;;;;;17.02;4.13;;;;;;;32.70;60.36;97655.13;4968061;28;20120;-71
2022/08/19 18:07:29;;;;;;;19.63;5.90;;;;;;;32.42;60.41;97655.69;4973260;28;20058;-71
2022/08/19 18:10:19;;;;;;;14.82;4.72;;;;;;;32.38;61.21;97652.88;4988858;28;20082;-70
2022/08/19 18:13:14;;;;;;;13.98;4.95;;;;;;;32.54;60.72;97655.38;4986552;28;20113;-71
2022/08/19 18:16:11;;;;;;;20.85;5.55;;;;;;;32.50;61.07;97651.78;5009539;28;20049;-72
2022/08/19 18:19:06;;;;;;;20.80;5.40;;;;;;;32.81;60.11;97651.59;5024174;28;20049;-71
2022/08/19 18:22:00;;;;;;;10.20;3.95;;;;;;;32.34;61.45;97651.25;5010107;28;20052;-71
2022/08/19 18:24:41;;;;;;;17.35;5.30;;;;;;;32.42;61.37;97654.88;5024224;28;20625;-71
2022/08/19 18:27:30;;;;;;;20.17;5.35;;;;;;;32.33;61.48;97660.75;5013969;28;20056;-71
2022/08/19 18:30:14;;;;;;;12.70;4.90;;;;;;;32.36;61.48;97660.00;5005675;28;20038;-71
2022/08/19 18:33:12;;;;;;;13.57;4.25;;;;;;;32.14;62.39;97659.84;5015571;28;20073;-71
2022/08/19 18:35:55;;;;;;;16.75;4.32;;;;;;;32.37;61.34;97661.63;4985836;28;20132;-71
2022/08/19 18:51:10;;;;;;;16.15;4.82;;;;;;;32.28;61.89;97672.25;5017198;28;20065;-69
2022/08/19 18:54:01;;;;;;;15.32;4.82;;;;;;;32.38;61.47;97668.75;5004907;28;20132;-71
2022/08/19 18:56:54;;;;;;;20.00;5.10;;;;;;;31.96;62.82;97665.19;5004642;28;20054;-71
2022/08/19 18:59:46;;;;;;;;;;;;;;;32.01;62.81;97666.81;5018907;28;20132;-72
2022/08/19 19:02:28;;;;;;;16.92;4.70;;;;;;;32.21;61.97;97661.84;5012490;28;19933;-71
2022/08/19 19:05:24;;;;;;;11.55;4.30;;;;;;;32.12;62.48;97666.94;5023368;28;20091;-71
2022/08/19 19:08:07;;;;;;;13.23;4.47;;;;;;;32.02;62.65;97664.88;5024800;28;20079;-71
2022/08/19 19:10:57;;;;;;;17.00;6.93;;;;;;;32.22;61.96;97662.66;5016916;28;20049;-70
2022/08/19 19:13:39;;;;;;;21.17;4.78;;;;;;;31.90;63.17;97668.69;5021655;28;20049;-71
2022/08/19 19:16:28;;;;;;;18.77;4.78;;;;;;;32.15;62.50;97660.63;4997444;28;20061;-71
2022/08/19 19:19:19;;;;;;;14.30;4.32;;;;;;;32.08;62.86;97660.56;5005748;28;20045;-71
2022/08/19 19:22:18;;;;;;;17.92;5.13;;;;;;;32.17;62.54;97659.06;4993994;28;20065;-70
2022/08/19 19:25:07;;;;;;;16.05;5.00;;;;;;;32.16;62.44;97660.25;4984498;28;20050;-71
2022/08/19 19:27:56;;;;;;;13.95;4.60;;;;;;;32.17;62.42;97655.47;4985911;28;20038;-71
2022/08/19 19:30:45;;;;;;;16.90;4.60;;;;;;;32.19;62.08;97659.47;4991195;28;20104;-71
2022/08/19 19:33:34;;;;;;;17.58;4.15;;;;;;;32.25;62.25;97659.13;4993211;28;20701;-71
2022/08/19 19:36:23;;;;;;;13.93;4.90;;;;;;;31.94;62.15;97655.66;4996312;28;20504;-72
2022/08/19 19:39:13;;;;;;;16.15;4.35;;;;;;;32.04;62.00;97654.19;4991655;28;20079;-69
2022/08/19 19:42:23;;;;;;;13.90;4.05;;;;;;;32.34;61.17;97667.91;5000952;28;20061;-70
2022/08/19 19:45:06;;;;;;;20.52;5.18;;;;;;;32.11;61.39;97668.91;4985386;28;20081;-72
2022/08/19 19:48:00;;;;;;;13.05;4.88;;;;;;;32.24;61.10;97668.66;4986217;28;20054;-70
2022/08/19 19:50:36;;;;;;;21.00;6.15;;;;;;;32.07;61.49;97665.31;4984745;28;20053;-70
2022/08/19 19:53:26;;;;;;;13.70;4.32;;;;;;;32.14;61.59;97665.38;4972149;28;20049;-70
2022/08/19 19:56:14;;;;;;;18.33;5.10;;;;;;;31.87;62.19;97658.34;5003896;28;20049;-71
2022/08/19 19:59:03;;;;;;;18.75;5.47;;;;;;;32.29;60.63;97665.50;4988969;28;20046;-71
2022/08/19 20:01:45;;;;;;;11.75;4.00;;;;;;;32.18;61.01;97659.88;5003709;28;20723;-71
2022/08/19 20:04:39;;;;;;;16.95;4.20;;;;;;;32.16;61.39;97653.91;5003440;28;20046;-71
2022/08/19 20:09:06;;;;;;;20.55;5.00;;;;;;;32.44;60.74;97653.31;4979720;28;20057;-71
2022/08/19 20:10:36;;;;;;;14.82;5.00;;;;;;;32.24;61.45;97661.09;4998254;28;20065;-71
2022/08/19 20:13:15;;;;;;;14.63;4.50;;;;;;;32.01;61.70;97655.72;4994858;28;20074;-71
2022/08/19 20:16:05;;;;;;;14.13;4.80;;;;;;;32.05;62.09;97656.56;4989061;28;20136;-70
2022/08/19 20:18:47;;;;;;;18.13;5.65;;;;;;;32.11;61.86;97655.03;5002837;28;20128;-71
2022/08/19 20:21:44;;;;;;;14.93;5.22;;;;;;;32.00;62.11;97645.78;5013322;28;20037;-71
2022/08/19 20:24:35;;;;;;;18.23;5.47;;;;;;;32.00;62.27;97648.56;5005423;28;20066;-71
2022/08/19 20:27:23;;;;;;;20.65;4.88;;;;;;;32.01;62.18;97641.84;4999426;28;20060;-71
2022/08/19 20:30:20;;;;;;;17.83;4.82;;;;;;;32.04;62.41;97635.53;5022222;28;20057;-71
2022/08/19 20:33:13;;;;;;;14.70;4.63;;;;;;;31.87;63.02;97639.72;5017051;28;20049;-71
2022/08/19 20:35:56;;;;;;;15.52;4.35;;;;;;;32.05;61.91;97633.59;5003197;28;20065;-71
2022/08/19 20:38:44;;;;;;;13.88;4.28;;;;;;;32.15;61.81;97638.41;5002827;28;20061;-71
2022/08/19 20:41:27;;;;;;;20.35;5.50;;;;;;;31.61;63.45;97633.13;5018975;28;20056;-70
2022/08/19 20:44:15;;;;;;;15.23;5.60;;;;;;;32.08;62.09;97636.41;5004998;28;20437;-71